createdAt,value
2022-08-09T00:00:04.529Z,64.03
2022-08-09T00:02:47.325Z,64.61
2022-08-09T00:06:18.015Z,64.33
2022-08-09T00:08:04.058Z,64.67
2022-08-09T00:10:37.200Z,64.78
2022-08-09T00:13:06.658Z,64.77
2022-08-09T00:15:58.066Z,64.95
2022-08-09T00:18:28.866Z,64.75
2022-08-09T00:20:55.578Z,64.52
2022-08-09T00:23:55.083Z,64.64
2022-08-09T00:26:11.136Z,64.81
2022-08-09T00:28:38.523Z,64.95
2022-08-09T00:31:30.250Z,64.94
2022-08-09T00:33:53.399Z,64.78
2022-08-09T00:36:20.479Z,65.03
2022-08-09T00:38:50.648Z,65.08
2022-08-09T00:44:09.817Z,65.13
2022-08-09T00:44:24.739Z,64.91
2022-08-09T00:46:57.457Z,65.09
2022-08-09T00:49:32.996Z,65.44
2022-08-09T00:52:05.111Z,66.20
2022-08-09T00:54:36.313Z,66.18
2022-08-09T00:57:08.782Z,66.21
2022-08-09T00:59:41.230Z,66.22
2022-08-09T01:02:18.863Z,66.55
2022-08-09T01:05:13.647Z,66.32
2022-08-09T01:08:08.904Z,66.53
2022-08-09T01:11:08.381Z,66.30
2022-08-09T01:14:01.805Z,67.08
2022-08-09T01:16:39.230Z,67.10
2022-08-09T01:19:39.683Z,67.37
2022-08-09T01:22:33.827Z,66.76
2022-08-09T01:25:19.322Z,67.37
2022-08-09T01:27:52.756Z,67.02
2022-08-09T01:30:28.538Z,67.30
2022-08-09T01:33:05.471Z,67.06
2022-08-09T01:35:44.614Z,67.02
2022-08-09T01:38:16.122Z,67.63
2022-08-09T01:40:53.012Z,67.36
2022-08-09T01:43:32.414Z,67.68
2022-08-09T01:46:18.238Z,68.25
2022-08-09T01:48:52.821Z,68.36
2022-08-09T01:51:22.665Z,68.54
2022-08-09T01:53:53.810Z,68.42
2022-08-09T01:56:27.061Z,68.91
2022-08-09T01:58:55.410Z,68.91
2022-08-09T02:01:57.938Z,68.84
2022-08-09T02:04:12.709Z,68.84
2022-08-09T02:07:02.561Z,69.23
2022-08-09T02:09:42.683Z,69.21
2022-08-09T02:12:18.092Z,68.91
2022-08-09T02:14:51.702Z,69.17
2022-08-09T02:17:59.499Z,69.08
2022-08-09T02:20:08.730Z,68.79
2022-08-09T02:22:40.540Z,69.11
2022-08-09T02:25:26.269Z,69.25
2022-08-09T02:28:04.146Z,68.97
2022-08-09T02:30:39.354Z,69.22
2022-08-09T02:33:14.088Z,69.11
2022-08-09T02:36:01.475Z,69.48
2022-08-09T02:38:32.101Z,69.56
2022-08-09T02:41:13.259Z,70.11
2022-08-09T02:43:54.537Z,70.03
2022-08-09T02:46:27.649Z,70.37
2022-08-09T02:48:58.815Z,70.11
2022-08-09T02:51:27.733Z,69.62
2022-08-09T02:54:02.931Z,70.19
2022-08-09T02:56:34.233Z,70.16
2022-08-09T02:59:05.635Z,69.82
2022-08-09T03:01:58.611Z,70.12
2022-08-09T03:04:26.266Z,71.35
2022-08-09T03:06:57.009Z,72.31
2022-08-09T03:09:26.706Z,73.82
2022-08-09T03:12:09.836Z,72.42
2022-08-09T03:14:39.592Z,72.64
2022-08-09T03:17:08.268Z,71.68
2022-08-09T03:19:59.063Z,71.81
2022-08-09T03:22:31.242Z,72.94
2022-08-09T03:25:06.387Z,74.82
2022-08-09T03:27:48.913Z,73.01
2022-08-09T03:30:29.799Z,72.46
2022-08-09T03:33:05.556Z,73.16
2022-08-09T03:36:11.562Z,72.50
2022-08-09T03:38:28.864Z,72.08
2022-08-09T03:40:57.847Z,72.59
2022-08-09T03:43:24.281Z,73.11
2022-08-09T03:46:04.514Z,72.68
2022-08-09T03:48:42.880Z,73.33
2022-08-09T03:51:56.332Z,72.35
2022-08-09T03:54:06.612Z,72.63
2022-08-09T03:56:37.791Z,72.43
2022-08-09T03:59:17.028Z,72.44
2022-08-09T04:01:49.105Z,72.63
2022-08-09T04:04:16.892Z,72.04
2022-08-09T04:06:48.765Z,72.63
2022-08-09T04:09:47.824Z,71.67
2022-08-09T04:12:11.902Z,72.31
2022-08-09T04:15:00.507Z,71.77
2022-08-09T04:17:27.154Z,71.94
2022-08-09T04:19:56.450Z,71.54
2022-08-09T04:22:23.225Z,72.45
2022-08-09T04:24:49.719Z,72.32
2022-08-09T04:27:17.439Z,72.34
2022-08-09T04:29:49.556Z,72.79
2022-08-09T04:32:16.683Z,72.70
2022-08-09T04:34:58.068Z,73.25
2022-08-09T04:37:45.369Z,73.01
2022-08-09T04:40:28.490Z,73.42
2022-08-09T04:43:00.644Z,73.20
2022-08-09T04:45:30.469Z,73.20
2022-08-09T04:48:04.063Z,73.78
2022-08-09T04:50:34.895Z,72.35
2022-08-09T04:53:13.359Z,73.11
2022-08-09T04:55:57.950Z,72.68
2022-08-09T04:58:27.152Z,72.45
2022-08-09T05:00:54.215Z,71.64
2022-08-09T05:03:40.142Z,71.70
2022-08-09T05:06:08.373Z,72.04
2022-08-09T05:08:35.140Z,72.08
2022-08-09T05:11:02.760Z,72.67
2022-08-09T05:13:33.150Z,72.02
2022-08-09T05:16:00.288Z,72.09
2022-08-09T05:18:37.956Z,72.49
2022-08-09T05:21:24.383Z,72.54
2022-08-09T05:23:59.832Z,72.36
2022-08-09T05:26:37.414Z,72.74
2022-08-09T05:29:21.581Z,72.44
2022-08-09T05:31:57.312Z,72.18
2022-08-09T05:34:30.712Z,72.87
2022-08-09T05:37:01.858Z,72.43
2022-08-09T05:39:36.447Z,71.79
2022-08-09T05:42:17.677Z,71.76
2022-08-09T05:44:50.653Z,71.72
2022-08-09T05:47:18.244Z,71.78
2022-08-09T05:50:30.732Z,71.40
2022-08-09T05:52:31.794Z,70.47
2022-08-09T05:55:03.190Z,69.98
2022-08-09T05:57:55.861Z,69.71
2022-08-09T06:00:25.528Z,69.78
2022-08-09T06:02:54.263Z,69.55
2022-08-09T06:05:50.257Z,70.09
2022-08-09T06:08:11.005Z,68.89
2022-08-09T06:10:38.094Z,68.84
2022-08-09T06:13:18.689Z,68.24
2022-08-09T06:15:46.713Z,68.36
2022-08-09T06:18:14.065Z,67.88
2022-08-09T06:20:42.777Z,67.60
2022-08-09T06:23:11.990Z,66.22
2022-08-09T06:25:42.046Z,65.12
2022-08-09T06:28:10.252Z,64.44
2022-08-09T06:30:40.424Z,64.25
2022-08-09T06:33:30.010Z,63.63
2022-08-09T06:35:58.254Z,63.40
2022-08-09T06:38:32.665Z,63.33
2022-08-09T06:41:04.589Z,62.55
2022-08-09T06:43:39.713Z,62.16
2022-08-09T06:46:10.894Z,61.71
2022-08-09T06:48:37.610Z,61.63
2022-08-09T06:51:10.711Z,61.00
2022-08-09T06:53:38.866Z,60.77
2022-08-09T06:56:07.935Z,60.79
2022-08-09T07:00:48.711Z,60.52
2022-08-09T07:01:24.214Z,59.91
2022-08-09T07:03:57.851Z,59.59
2022-08-09T07:06:30.302Z,58.62
2022-08-09T07:08:56.744Z,59.01
2022-08-09T07:11:25.215Z,58.04
2022-08-09T07:14:04.967Z,57.41
2022-08-09T07:16:42.092Z,57.17
2022-08-09T07:19:23.243Z,56.63
2022-08-09T07:21:57.803Z,56.10
2022-08-09T07:24:32.836Z,55.51
2022-08-09T07:27:10.912Z,54.85
2022-08-09T07:29:57.014Z,55.00
2022-08-09T07:32:32.030Z,52.87
2022-08-09T07:35:12.025Z,53.22
2022-08-09T07:37:43.258Z,53.21
2022-08-09T07:40:13.602Z,52.78
2022-08-09T07:42:55.581Z,52.28
2022-08-09T07:45:40.344Z,52.59
2022-08-09T07:48:25.742Z,52.65
2022-08-09T07:51:09.207Z,52.51
2022-08-09T07:54:05.619Z,52.11
2022-08-09T07:56:36.851Z,51.78
2022-08-09T07:59:12.353Z,50.91
2022-08-09T08:01:39.716Z,50.14
2022-08-09T08:04:10.601Z,49.11
2022-08-09T08:06:37.461Z,48.42
2022-08-09T08:09:39.765Z,48.36
2022-08-09T08:12:28.247Z,48.37
2022-08-09T08:14:55.426Z,47.28
2022-08-09T08:17:24.763Z,47.15
2022-08-09T08:20:12.953Z,46.41
2022-08-09T08:22:40.222Z,45.38
2022-08-09T08:25:13.256Z,45.88
2022-08-09T08:27:41.211Z,45.03
2022-08-09T08:30:11.059Z,44.43
2022-08-09T08:32:41.568Z,44.56
2022-08-09T08:35:19.799Z,45.13
2022-08-09T08:37:59.861Z,44.99
2022-08-09T08:40:33.089Z,44.15
2022-08-09T08:43:02.000Z,43.20
2022-08-09T08:45:43.308Z,43.61
2022-08-09T08:48:19.517Z,43.01
2022-08-09T08:50:49.395Z,43.36
2022-08-09T08:53:21.906Z,42.51
2022-08-09T08:55:48.871Z,42.27
2022-08-09T08:58:27.178Z,42.53
2022-08-09T09:00:57.043Z,42.26
2022-08-09T09:03:33.100Z,42.59
2022-08-09T09:06:05.562Z,42.06
2022-08-09T09:08:40.444Z,42.27
2022-08-09T09:11:13.933Z,41.70
2022-08-09T09:13:57.556Z,41.68
2022-08-09T09:16:32.176Z,41.40
2022-08-09T09:22:11.778Z,41.11
2022-08-09T09:24:45.852Z,40.88
2022-08-09T09:27:47.245Z,40.73
2022-08-09T09:30:19.302Z,40.54
2022-08-09T09:33:14.408Z,39.97
2022-08-09T09:36:03.938Z,40.77
2022-08-09T09:38:44.620Z,40.42
2022-08-09T09:41:28.002Z,39.47
2022-08-09T09:44:12.266Z,39.08
2022-08-09T09:46:51.489Z,39.49
2022-08-09T09:49:31.913Z,39.63
2022-08-09T09:52:16.766Z,39.41
2022-08-09T09:55:27.592Z,38.61
2022-08-09T09:58:18.996Z,38.43
2022-08-09T10:00:54.045Z,38.38
2022-08-09T10:03:42.690Z,38.66
2022-08-09T10:06:09.987Z,38.82
2022-08-09T10:08:43.329Z,38.42
2022-08-09T10:12:00.743Z,38.41
2022-08-09T10:14:33.026Z,37.85
2022-08-09T10:17:38.917Z,37.85
2022-08-09T10:19:57.065Z,38.58
2022-08-09T10:22:39.033Z,37.97
2022-08-09T10:25:11.827Z,38.27
2022-08-09T10:27:57.057Z,37.70
2022-08-09T10:34:04.895Z,37.17
2022-08-09T10:36:09.708Z,37.59
2022-08-09T10:38:56.140Z,37.50
2022-08-09T10:41:24.760Z,37.76
2022-08-09T10:43:59.405Z,37.29
2022-08-09T10:46:54.260Z,36.69
2022-08-09T10:49:50.978Z,36.51
2022-08-09T10:52:45.846Z,36.21
2022-08-09T10:55:28.869Z,36.44
2022-08-09T10:58:45.029Z,36.04
2022-08-09T11:03:13.131Z,36.41
2022-08-09T11:04:30.345Z,36.63
2022-08-09T11:07:00.234Z,36.40
2022-08-09T11:09:41.362Z,35.93
2022-08-09T11:12:30.512Z,35.68
2022-08-09T11:15:24.133Z,35.62
2022-08-09T11:18:02.637Z,36.62
2022-08-09T11:20:42.167Z,36.16
2022-08-09T11:23:10.678Z,36.52
2022-08-09T11:25:46.087Z,36.30
2022-08-09T11:28:56.382Z,36.33
2022-08-09T11:31:43.115Z,36.21
2022-08-09T11:34:17.709Z,36.14
2022-08-09T11:36:45.400Z,36.08
2022-08-09T11:39:12.044Z,35.99
2022-08-09T11:41:40.690Z,36.07
2022-08-09T11:44:08.243Z,35.86
2022-08-09T11:46:57.738Z,35.23
2022-08-09T11:50:56.054Z,35.43
2022-08-09T11:53:15.750Z,34.99
2022-08-09T11:55:52.872Z,35.67
2022-08-09T11:58:30.350Z,36.23
2022-08-09T12:01:37.316Z,36.47
2022-08-09T12:04:00.779Z,36.38
2022-08-09T12:06:32.118Z,36.37
2022-08-09T12:09:05.681Z,36.73
2022-08-09T12:11:37.927Z,36.81
2022-08-09T12:14:28.592Z,36.36
2022-08-09T12:16:58.234Z,36.41
2022-08-09T12:19:30.117Z,35.61
2022-08-09T12:22:01.785Z,35.77
2022-08-09T12:24:29.809Z,35.64
2022-08-09T12:29:14.480Z,35.17
2022-08-09T12:30:01.458Z,35.66
2022-08-09T12:32:41.405Z,35.98
2022-08-09T12:35:12.482Z,35.65
2022-08-09T12:37:50.462Z,35.59
2022-08-09T12:40:22.995Z,35.43
2022-08-09T12:42:50.552Z,36.29
2022-08-09T12:45:33.796Z,36.23
2022-08-09T12:48:03.303Z,36.30
2022-08-09T12:50:30.356Z,36.30
2022-08-09T12:53:09.309Z,36.72
2022-08-09T12:56:15.639Z,35.97
2022-08-09T12:58:29.700Z,36.47
2022-08-09T13:00:57.620Z,36.18
2022-08-09T13:03:56.968Z,36.04
2022-08-09T13:06:34.551Z,36.21
2022-08-09T13:09:09.960Z,36.14
2022-08-09T13:11:42.272Z,35.78
2022-08-09T13:14:40.807Z,35.29
2022-08-09T13:17:01.106Z,35.03
2022-08-09T13:20:07.270Z,34.96
2022-08-09T13:22:36.907Z,35.16
2022-08-09T13:25:07.663Z,35.54
2022-08-09T13:27:54.823Z,35.51
2022-08-09T13:30:49.287Z,35.86
2022-08-09T13:33:17.076Z,35.47
2022-08-09T13:36:24.500Z,35.18
2022-08-09T13:38:57.315Z,35.59
2022-08-09T13:41:55.587Z,35.36
2022-08-09T13:44:13.743Z,36.10
2022-08-09T13:47:24.323Z,36.58
2022-08-09T13:49:37.891Z,36.46
2022-08-09T13:52:08.942Z,36.35
2022-08-09T13:54:35.817Z,36.74
2022-08-09T13:57:08.505Z,36.65
2022-08-09T13:59:41.967Z,36.58
2022-08-09T14:02:08.793Z,36.44
2022-08-09T14:04:36.563Z,35.79
2022-08-09T14:07:04.223Z,36.20
2022-08-09T14:09:34.646Z,35.76
2022-08-09T14:12:06.900Z,35.62
2022-08-09T14:14:43.871Z,35.53
2022-08-09T14:17:12.131Z,36.04
2022-08-09T14:19:39.124Z,35.24
2022-08-09T14:22:07.092Z,34.82
2022-08-09T14:24:35.628Z,34.82
2022-08-09T14:27:02.371Z,34.17
2022-08-09T14:30:35.577Z,34.09
2022-08-09T14:32:19.717Z,34.27
2022-08-09T14:34:55.616Z,34.54
2022-08-09T14:37:28.160Z,34.50
2022-08-09T14:39:55.161Z,34.80
2022-08-09T14:42:31.827Z,34.87
2022-08-09T14:46:40.436Z,35.21
2022-08-09T14:47:57.322Z,35.51
2022-08-09T14:50:25.939Z,35.47
2022-08-09T14:52:53.498Z,36.19
2022-08-09T14:55:21.204Z,36.45
2022-08-09T14:57:48.885Z,36.14
2022-08-09T15:00:15.813Z,36.46
2022-08-09T15:02:42.239Z,36.00
2022-08-09T15:05:10.419Z,36.24
2022-08-09T15:07:37.014Z,36.59
2022-08-09T15:10:10.695Z,36.73
2022-08-09T15:12:40.440Z,36.25
2022-08-09T15:15:11.687Z,35.93
2022-08-09T15:17:42.096Z,36.84
2022-08-09T15:20:15.315Z,36.34
2022-08-09T15:23:03.293Z,35.87
2022-08-09T15:25:46.260Z,35.95
2022-08-09T15:28:24.121Z,35.77
2022-08-09T15:31:00.366Z,35.86
2022-08-09T15:34:04.402Z,35.65
2022-08-09T15:36:17.762Z,35.89
2022-08-09T15:38:44.551Z,35.98
2022-08-09T15:41:12.073Z,35.73
2022-08-09T15:43:48.825Z,35.96
2022-08-09T15:46:33.041Z,36.00
2022-08-09T15:49:22.625Z,36.58
2022-08-09T15:52:05.246Z,36.37
2022-08-09T15:54:50.466Z,36.46
2022-08-09T15:57:34.281Z,36.25
2022-08-09T16:00:24.493Z,36.57
2022-08-09T16:02:57.538Z,36.59
2022-08-09T16:05:47.123Z,36.62
2022-08-09T16:08:31.048Z,37.05
2022-08-09T16:11:02.122Z,36.79
2022-08-09T16:14:03.807Z,36.54
2022-08-09T16:16:17.495Z,36.48
2022-08-09T16:18:45.669Z,36.54
2022-08-09T16:21:17.224Z,36.70
2022-08-09T16:23:55.422Z,36.42
2022-08-09T16:26:34.578Z,36.66
2022-08-09T16:29:11.650Z,36.85
2022-08-09T16:32:19.293Z,35.93
2022-08-09T16:34:55.325Z,36.43
2022-08-09T16:37:50.587Z,36.50
2022-08-09T16:40:08.010Z,36.89
2022-08-09T16:42:36.122Z,36.45
2022-08-09T16:45:05.132Z,36.70
2022-08-09T16:48:41.445Z,36.61
2022-08-09T16:50:32.660Z,36.78
2022-08-09T16:53:00.923Z,36.48
2022-08-09T16:55:31.562Z,36.56
2022-08-09T16:58:16.599Z,37.02
2022-08-09T17:00:43.349Z,37.86
2022-08-09T17:03:20.895Z,37.95
2022-08-09T17:06:07.398Z,38.23
2022-08-09T17:08:45.077Z,38.08
2022-08-09T17:11:24.642Z,38.03
2022-08-09T17:14:08.434Z,38.37
2022-08-09T17:16:51.998Z,38.36
2022-08-09T17:19:18.455Z,38.48
2022-08-09T17:21:47.471Z,38.67
2022-08-09T17:24:20.708Z,38.59
2022-08-09T17:26:55.081Z,39.06
2022-08-09T17:29:21.626Z,38.71
2022-08-09T17:31:49.202Z,39.03
2022-08-09T17:35:00.869Z,39.04
2022-08-09T17:37:02.526Z,39.38
2022-08-09T17:39:52.822Z,39.19
2022-08-09T17:42:41.589Z,39.58
2022-08-09T17:45:03.736Z,39.99
2022-08-09T17:47:33.023Z,40.37
2022-08-09T17:50:17.239Z,40.55
2022-08-09T17:53:04.669Z,41.42
2022-08-09T17:55:48.706Z,41.51
2022-08-09T17:58:18.868Z,41.71
2022-08-09T18:00:47.915Z,41.47
2022-08-09T18:03:17.685Z,41.74
2022-08-09T18:05:45.356Z,41.95
2022-08-09T18:08:19.627Z,41.60
2022-08-09T18:11:02.067Z,41.58
2022-08-09T18:13:39.999Z,41.97
2022-08-09T18:16:16.961Z,41.91
2022-08-09T18:18:56.194Z,41.97
2022-08-09T18:21:24.257Z,42.39
2022-08-09T18:24:10.174Z,42.50
2022-08-09T18:26:38.889Z,42.89
2022-08-09T18:30:42.268Z,42.96
2022-08-09T18:32:00.504Z,43.25
2022-08-09T18:34:31.470Z,43.36
2022-08-09T18:36:58.374Z,43.59
2022-08-09T18:39:25.735Z,43.50
2022-08-09T18:42:01.002Z,44.12
2022-08-09T18:44:27.779Z,43.71
2022-08-09T18:47:07.465Z,43.82
2022-08-09T18:49:41.549Z,43.58
2022-08-09T18:52:11.690Z,43.81
2022-08-09T18:54:38.693Z,44.00
2022-08-09T18:57:06.791Z,43.96
2022-08-09T18:59:49.133Z,44.36
2022-08-09T19:02:19.153Z,44.74
2022-08-09T19:04:48.067Z,44.79
2022-08-09T19:07:32.718Z,45.00
2022-08-09T19:10:16.727Z,45.16
2022-08-09T19:12:45.650Z,45.25
2022-08-09T19:15:26.864Z,45.93
2022-08-09T19:17:56.515Z,45.66
2022-08-09T19:20:25.037Z,46.38
2022-08-09T19:22:54.832Z,46.51
2022-08-09T19:25:41.233Z,46.73
2022-08-09T19:28:13.494Z,47.04
2022-08-09T19:30:44.288Z,47.00
2022-08-09T19:33:19.317Z,47.00
2022-08-09T19:35:58.127Z,47.16
2022-08-09T19:38:26.331Z,47.15
2022-08-09T19:40:53.870Z,47.81
2022-08-09T19:43:58.161Z,48.25
2022-08-09T19:46:08.548Z,48.38
2022-08-09T19:49:00.065Z,49.00
2022-08-09T19:51:27.872Z,48.96
2022-08-09T19:53:58.442Z,49.47
2022-08-09T19:56:28.574Z,49.86
2022-08-09T19:59:18.478Z,50.28
2022-08-09T20:01:52.546Z,50.25
2022-08-09T20:04:37.120Z,50.31
2022-08-09T20:07:12.432Z,50.79
2022-08-09T20:09:47.633Z,50.76
2022-08-09T20:12:16.218Z,50.65
2022-08-09T20:14:56.755Z,51.08
2022-08-09T20:17:23.250Z,50.69
2022-08-09T20:19:54.680Z,50.33
2022-08-09T20:22:21.488Z,50.66
2022-08-09T20:24:58.514Z,50.30
2022-08-09T20:27:29.260Z,50.69
2022-08-09T20:29:57.197Z,51.17
2022-08-09T20:32:33.438Z,52.22
2022-08-09T20:35:01.738Z,53.11
2022-08-09T20:38:20.415Z,53.01
2022-08-09T20:40:26.358Z,53.28
2022-08-09T20:43:12.140Z,53.93
2022-08-09T20:46:00.402Z,54.03
2022-08-09T20:48:28.986Z,54.08
2022-08-09T20:50:58.513Z,54.22
2022-08-09T20:53:37.201Z,54.49
2022-08-09T20:56:20.807Z,54.67
2022-08-09T20:58:54.438Z,54.77
2022-08-09T21:01:35.508Z,55.80
2022-08-09T21:05:54.548Z,56.01
2022-08-09T21:06:58.057Z,55.95
2022-08-09T21:09:42.110Z,55.78
2022-08-09T21:14:46.148Z,57.02
2022-08-09T21:18:20.823Z,57.02
2022-08-09T21:20:17.183Z,57.58
2022-08-09T21:22:54.314Z,58.14
2022-08-09T21:25:43.991Z,58.21
2022-08-09T21:28:34.529Z,58.52
2022-08-09T21:31:16.563Z,58.55
2022-08-09T21:33:50.393Z,58.38
2022-08-09T21:36:18.990Z,58.56
2022-08-09T21:38:45.538Z,58.08
2022-08-09T21:41:17.768Z,58.07
2022-08-09T21:43:56.793Z,58.30
2022-08-09T21:46:24.771Z,58.78
2022-08-09T21:48:52.156Z,58.52
2022-08-09T21:51:24.246Z,58.52
2022-08-09T21:54:02.534Z,58.99
2022-08-09T21:56:43.092Z,60.11
2022-08-09T21:59:16.172Z,59.98
2022-08-09T22:01:58.600Z,59.98
2022-08-09T22:04:54.989Z,60.51
2022-08-09T22:07:14.372Z,60.96
2022-08-09T22:10:00.116Z,60.87
2022-08-09T22:12:31.254Z,61.12
2022-08-09T22:14:58.482Z,61.16
2022-08-09T22:17:24.903Z,61.36
2022-08-09T22:19:59.304Z,61.06
2022-08-09T22:22:28.310Z,61.99
2022-08-09T22:26:03.969Z,61.76
2022-08-09T22:27:41.171Z,62.10
2022-08-09T22:30:09.575Z,62.73
2022-08-09T22:32:36.026Z,63.32
2022-08-09T22:35:06.125Z,63.75
2022-08-09T22:37:39.969Z,63.89
2022-08-09T22:40:08.358Z,63.87
2022-08-09T22:42:34.940Z,64.05
2022-08-09T22:48:06.196Z,64.27
2022-08-09T22:48:12.118Z,65.43
2022-08-09T22:50:34.493Z,65.66
2022-08-09T22:53:03.520Z,65.63
2022-08-09T22:56:05.811Z,65.54
2022-08-09T22:58:30.496Z,65.70
2022-08-09T23:00:59.785Z,65.34
2022-08-09T23:04:02.704Z,66.00
2022-08-09T23:06:14.036Z,65.82
2022-08-09T23:08:47.007Z,65.46
2022-08-09T23:11:15.769Z,65.29
2022-08-09T23:13:44.490Z,64.70
2022-08-09T23:16:13.111Z,64.92
2022-08-09T23:18:40.537Z,65.16
2022-08-09T23:21:08.301Z,65.51
2022-08-09T23:23:35.247Z,65.74
2022-08-09T23:26:02.057Z,64.90
2022-08-09T23:28:28.676Z,65.52
2022-08-09T23:30:55.165Z,65.50
2022-08-09T23:33:22.757Z,66.47
2022-08-09T23:36:06.241Z,66.19
2022-08-09T23:38:33.743Z,66.51
2022-08-09T23:41:01.207Z,66.68
2022-08-09T23:43:27.671Z,66.78
2022-08-09T23:45:54.118Z,67.17
2022-08-09T23:48:20.568Z,67.38
2022-08-09T23:50:47.032Z,67.58
2022-08-09T23:53:13.838Z,68.91
2022-08-09T23:55:40.531Z,68.65
2022-08-09T23:58:25.997Z,68.92
